Karmel — 9HA2896 — position and weather

sailwx.info

Track history (hours):
 
Tides and Currents Weather Stations Pressure Air Temp Water Temp Dewpoint Dewpoint Depression Visibility Wind Speed Wind Dir Waves Ship Positions

Karmel

Last reported at 2014-Jul-24 05:33 UTC. Time now 2014-Jul-25 13:47 UTC.
Position N 55°59' W 003°11'.

Length 90 m; draft 3.7 m.

Type: Cargo ship. MMSI: 256632000.

Date/timePositionNaut miles runAvg speedWind from/ knotsBaromVisibWave heightAir tempDewpointWater temp
2014-Jul-24 05:33N 55°59' W 003°11'5 4.0
2014-Jul-24 04:24N 56°02' W 003°04'26 5.3
2014-Jul-23 23:32N 55°60' W 002°18'8 7.6
2014-Jul-23 22:32N 55°56' W 002°06'8 7.5
2014-Jul-23 21:32N 55°51' W 001°56'8 8.0
2014-Jul-23 20:32N 55°46' W 001°45'8 8.4
2014-Jul-23 19:33N 55°40' W 001°34'9 8.6
2014-Jul-23 18:32N 55°32' W 001°28'8 8.7
2014-Jul-23 17:33N 55°25' W 001°21'1211.6
2014-Jul-23 16:32N 55°16' W 001°07'1111.2
2014-Jul-23 15:32N 55°08' W 000°53'1111.2
2014-Jul-23 14:33N 54°60' W 000°41'1111.1
2014-Jul-23 13:33N 54°51' W 000°28'1111.0
2014-Jul-23 12:33N 54°43' W 000°15'1110.8
2014-Jul-23 11:33N 54°35' W 000°03'1111.2
2014-Jul-23 10:33N 54°27' E 000°10'1111.5
2014-Jul-23 09:33N 54°18' E 000°23'1211.8
2014-Jul-23 08:33N 54°09' E 000°36'1211.6
2014-Jul-23 07:33N 54°02' E 000°51'1211.6
2014-Jul-23 06:33N 53°56' E 001°08'1111.3
2014-Jul-23 05:33N 53°47' E 001°21'1110.6
2014-Jul-23 04:33N 53°39' E 001°33'10 9.9
2014-Jul-23 03:33N 53°32' E 001°44'1010.1
2014-Jul-23 02:33N 53°25' E 001°55'1110.7
2014-Jul-23 01:33N 53°16' E 002°07'1211.7
2014-Jul-23 00:33N 53°08' E 002°20'1211.6
2014-Jul-22 23:33N 52°57' E 002°25'1212.1
2014-Jul-22 22:33N 52°44' E 002°28'1211.7
2014-Jul-22 21:33N 52°33' E 002°30'1110.9
2014-Jul-22 20:33N 52°22' E 002°32'1010.2
2014-Jul-22 19:33N 52°12' E 002°34'14 9.8
2014-Jul-22 18:06N 51°59' E 002°42'910.5
2014-Jul-22 17:16N 51°54' E 002°54'710.1
2014-Jul-22 16:33N 51°49' E 003°02'1010.5
2014-Jul-22 15:33N 51°42' E 003°15'1110.5
2014-Jul-22 14:33N 51°33' E 003°25'1110.2
2014-Jul-22 13:31N 51°25' E 003°35'0 0.0
2014-Jul-22 12:31N 51°25' E 003°35'0 0.1
2014-Jul-22 11:31N 51°25' E 003°36'0 0.1
2014-Jul-22 10:31N 51°25' E 003°36'0 0.0
2014-Jul-22 09:28N 51°25' E 003°36'0 0.0
2014-Jul-22 08:31N 51°25' E 003°36'0 0.0
2014-Jul-22 07:31N 51°25' E 003°36'0 0.0
2014-Jul-22 06:31N 51°25' E 003°36'0 0.0
2014-Jul-22 05:31N 51°25' E 003°36'0 0.0
2014-Jul-22 04:31N 51°25' E 003°36'0 0.1
2014-Jul-22 03:31N 51°25' E 003°35'0 0.0
2014-Jul-22 02:31N 51°25' E 003°35'1 1.5
2014-Jul-22 01:34N 51°25' E 003°38'9 8.8
2014-Jul-22 00:34N 51°20' E 003°49'4 4.1
2014-Jul-21 23:34N 51°16' E 003°50'2 1.8
2014-Jul-21 22:33N 51°14' E 003°48'0 0.0
2014-Jul-21 21:32N 51°14' E 003°48'0 0.0
2014-Jul-21 20:34N 51°14' E 003°48'0 0.0
2014-Jul-21 20:18N 51°14' E 003°48'0 0.0
2014-Jul-21 19:31N 51°14' E 003°48'0 0.1
2014-Jul-21 18:31N 51°14' E 003°48'0 0.0
2014-Jul-21 17:32N 51°14' E 003°48'0 0.0
2014-Jul-21 16:33N 51°14' E 003°48'0 0.0
2014-Jul-21 15:28N 51°14' E 003°48'0 0.0
2014-Jul-21 14:31N 51°14' E 003°48'0 0.0
2014-Jul-21 13:31N 51°14' E 003°48'0 0.0
2014-Jul-21 12:31N 51°14' E 003°48'0 0.0
2014-Jul-21 11:32N 51°14' E 003°48'0 0.0
2014-Jul-21 10:33N 51°14' E 003°48'0 0.0
2014-Jul-21 09:32N 51°14' E 003°48'0 0.0
2014-Jul-21 08:32N 51°14' E 003°48'0 0.0
2014-Jul-21 07:29N 51°14' E 003°48'0 0.0
2014-Jul-21 06:28N 51°14' E 003°48'0 0.0
2014-Jul-21 05:28N 51°14' E 003°48'0 0.0
2014-Jul-21 04:31N 51°14' E 003°48'0 0.0
2014-Jul-21 03:31N 51°14' E 003°48'0 0.0
2014-Jul-21 02:31N 51°14' E 003°48'0 0.0
2014-Jul-21 01:31N 51°14' E 003°48'0 0.0
2014-Jul-21 00:28N 51°14' E 003°48'0 0.0
2014-Jul-20 23:22N 51°14' E 003°48'0 0.0
2014-Jul-20 22:31N 51°14' E 003°48'0 0.0
2014-Jul-20 21:31N 51°14' E 003°48'0 0.0
2014-Jul-20 20:33N 51°14' E 003°48'0 0.0
2014-Jul-20 19:34N 51°14' E 003°48'0 0.2
2014-Jul-20 18:34N 51°14' E 003°49'6 5.7
2014-Jul-20 17:33N 51°20' E 003°49'6 5.6
2014-Jul-20 16:33N 51°24' E 003°42'9 9.1
2014-Jul-20 15:33N 51°25' E 003°28'1110.0
2014-Jul-20 14:27N 51°24' E 003°10'10 9.9
2014-Jul-20 13:28N 51°25' E 002°55'8 8.4
2014-Jul-20 12:33N 51°22' E 002°43'10 9.7
2014-Jul-20 11:28N 51°21' E 002°26'1010.5
2014-Jul-20 10:33N 51°16' E 002°13'1111.2
2014-Jul-20 09:33N 51°10' E 001°58'1111.5
2014-Jul-20 08:33N 51°03' E 001°44'4812.1
2014-Jul-20 04:32N 50°29' E 000°49'1212.1
2014-Jul-20 03:33N 50°26' E 000°31'6612.1
2014-Jul-19 22:05N 50°07' W 001°08'5 9.7
2014-Jul-19 21:32N 50°06' W 001°16'9 8.9
2014-Jul-19 20:33N 50°03' W 001°30'217 6.0
2014-Jul-18 08:16N 46°30' W 002°30'1010.0
2014-Jul-18 07:14N 46°24' W 002°19'1810.3
2014-Jul-18 05:29N 46°12' W 001°59'4410.9
2014-Jul-18 01:27N 45°36' W 001°22'1311.4
2014-Jul-18 00:16N 45°35' W 001°03'2312.6
2014-Jul-17 22:27N 45°16' W 000°45'22 0.5
2014-Jul-16 00:32N 45°34' W 001°03'4 0.4
2014-Jul-15 14:29N 45°37' W 001°06'1010.9
2014-Jul-15 13:33N 45°37' W 001°20'5 0.9
2014-Jul-15 08:06N 45°36' W 001°27'0 0.0
2014-Jul-15 04:17N 45°36' W 001°27'12610.7
2014-Jul-14 16:32N 43°46' W 002°50'2210.6
2014-Jul-14 14:27N 43°26' W 003°04'6 6.4
2014-Jul-14 13:33N 43°21' W 003°02'0 0.0
2014-Jul-14 12:31N 43°21' W 003°02'0 0.0
2014-Jul-14 11:32N 43°21' W 003°02'  
Track history (hours):
 
Tides and Currents Weather Stations Pressure Air Temp Water Temp Dewpoint Dewpoint Depression Visibility Wind Speed Wind Dir Waves Ship Positions

Karmel

Last reported at 2014-Jul-24 05:33 UTC. Time now 2014-Jul-25 13:47 UTC.
Position N 55°59' W 003°11'.

Length 90 m; draft 3.7 m.

Type: Cargo ship. MMSI: 256632000.

Date/timePositionNaut miles runAvg speedWind from/ knotsBaromVisibWave heightAir tempDewpointWater temp
2014-Jul-24 05:33N 55°59' W 003°11'5 4.0
2014-Jul-24 04:24N 56°02' W 003°04'26 5.3
2014-Jul-23 23:32N 55°60' W 002°18'8 7.6
2014-Jul-23 22:32N 55°56' W 002°06'8 7.5
2014-Jul-23 21:32N 55°51' W 001°56'8 8.0
2014-Jul-23 20:32N 55°46' W 001°45'8 8.4
2014-Jul-23 19:33N 55°40' W 001°34'9 8.6
2014-Jul-23 18:32N 55°32' W 001°28'8 8.7
2014-Jul-23 17:33N 55°25' W 001°21'1211.6
2014-Jul-23 16:32N 55°16' W 001°07'1111.2
2014-Jul-23 15:32N 55°08' W 000°53'1111.2
2014-Jul-23 14:33N 54°60' W 000°41'1111.1
2014-Jul-23 13:33N 54°51' W 000°28'1111.0
2014-Jul-23 12:33N 54°43' W 000°15'1110.8
2014-Jul-23 11:33N 54°35' W 000°03'1111.2
2014-Jul-23 10:33N 54°27' E 000°10'1111.5
2014-Jul-23 09:33N 54°18' E 000°23'1211.8
2014-Jul-23 08:33N 54°09' E 000°36'1211.6
2014-Jul-23 07:33N 54°02' E 000°51'1211.6
2014-Jul-23 06:33N 53°56' E 001°08'1111.3
2014-Jul-23 05:33N 53°47' E 001°21'1110.6
2014-Jul-23 04:33N 53°39' E 001°33'10 9.9
2014-Jul-23 03:33N 53°32' E 001°44'1010.1
2014-Jul-23 02:33N 53°25' E 001°55'1110.7
2014-Jul-23 01:33N 53°16' E 002°07'1211.7
2014-Jul-23 00:33N 53°08' E 002°20'1211.6
2014-Jul-22 23:33N 52°57' E 002°25'1212.1
2014-Jul-22 22:33N 52°44' E 002°28'1211.7
2014-Jul-22 21:33N 52°33' E 002°30'1110.9
2014-Jul-22 20:33N 52°22' E 002°32'1010.2
2014-Jul-22 19:33N 52°12' E 002°34'14 9.8
2014-Jul-22 18:06N 51°59' E 002°42'910.5
2014-Jul-22 17:16N 51°54' E 002°54'710.1
2014-Jul-22 16:33N 51°49' E 003°02'1010.5
2014-Jul-22 15:33N 51°42' E 003°15'1110.5
2014-Jul-22 14:33N 51°33' E 003°25'1110.2
2014-Jul-22 13:31N 51°25' E 003°35'0 0.0
2014-Jul-22 12:31N 51°25' E 003°35'0 0.1
2014-Jul-22 11:31N 51°25' E 003°36'0 0.1
2014-Jul-22 10:31N 51°25' E 003°36'0 0.0
2014-Jul-22 09:28N 51°25' E 003°36'0 0.0
2014-Jul-22 08:31N 51°25' E 003°36'0 0.0
2014-Jul-22 07:31N 51°25' E 003°36'0 0.0
2014-Jul-22 06:31N 51°25' E 003°36'0 0.0
2014-Jul-22 05:31N 51°25' E 003°36'0 0.0
2014-Jul-22 04:31N 51°25' E 003°36'0 0.1
2014-Jul-22 03:31N 51°25' E 003°35'0 0.0
2014-Jul-22 02:31N 51°25' E 003°35'1 1.5
2014-Jul-22 01:34N 51°25' E 003°38'9 8.8
2014-Jul-22 00:34N 51°20' E 003°49'4 4.1
2014-Jul-21 23:34N 51°16' E 003°50'2 1.8
2014-Jul-21 22:33N 51°14' E 003°48'0 0.0
2014-Jul-21 21:32N 51°14' E 003°48'0 0.0
2014-Jul-21 20:34N 51°14' E 003°48'0 0.0
2014-Jul-21 20:18N 51°14' E 003°48'0 0.0
2014-Jul-21 19:31N 51°14' E 003°48'0 0.1
2014-Jul-21 18:31N 51°14' E 003°48'0 0.0
2014-Jul-21 17:32N 51°14' E 003°48'0 0.0
2014-Jul-21 16:33N 51°14' E 003°48'0 0.0
2014-Jul-21 15:28N 51°14' E 003°48'0 0.0
2014-Jul-21 14:31N 51°14' E 003°48'0 0.0
2014-Jul-21 13:31N 51°14' E 003°48'0 0.0
2014-Jul-21 12:31N 51°14' E 003°48'0 0.0
2014-Jul-21 11:32N 51°14' E 003°48'0 0.0
2014-Jul-21 10:33N 51°14' E 003°48'0 0.0
2014-Jul-21 09:32N 51°14' E 003°48'0 0.0
2014-Jul-21 08:32N 51°14' E 003°48'0 0.0
2014-Jul-21 07:29N 51°14' E 003°48'0 0.0
2014-Jul-21 06:28N 51°14' E 003°48'0 0.0
2014-Jul-21 05:28N 51°14' E 003°48'0 0.0
2014-Jul-21 04:31N 51°14' E 003°48'0 0.0
2014-Jul-21 03:31N 51°14' E 003°48'0 0.0
2014-Jul-21 02:31N 51°14' E 003°48'0 0.0
2014-Jul-21 01:31N 51°14' E 003°48'0 0.0
2014-Jul-21 00:28N 51°14' E 003°48'0 0.0
2014-Jul-20 23:22N 51°14' E 003°48'0 0.0
2014-Jul-20 22:31N 51°14' E 003°48'0 0.0
2014-Jul-20 21:31N 51°14' E 003°48'0 0.0
2014-Jul-20 20:33N 51°14' E 003°48'0 0.0
2014-Jul-20 19:34N 51°14' E 003°48'0 0.2
2014-Jul-20 18:34N 51°14' E 003°49'6 5.7
2014-Jul-20 17:33N 51°20' E 003°49'6 5.6
2014-Jul-20 16:33N 51°24' E 003°42'9 9.1
2014-Jul-20 15:33N 51°25' E 003°28'1110.0
2014-Jul-20 14:27N 51°24' E 003°10'10 9.9
2014-Jul-20 13:28N 51°25' E 002°55'8 8.4
2014-Jul-20 12:33N 51°22' E 002°43'10 9.7
2014-Jul-20 11:28N 51°21' E 002°26'1010.5
2014-Jul-20 10:33N 51°16' E 002°13'1111.2
2014-Jul-20 09:33N 51°10' E 001°58'1111.5
2014-Jul-20 08:33N 51°03' E 001°44'4812.1
2014-Jul-20 04:32N 50°29' E 000°49'1212.1
2014-Jul-20 03:33N 50°26' E 000°31'6612.1
2014-Jul-19 22:05N 50°07' W 001°08'5 9.7
2014-Jul-19 21:32N 50°06' W 001°16'9 8.9
2014-Jul-19 20:33N 50°03' W 001°30'217 6.0
2014-Jul-18 08:16N 46°30' W 002°30'1010.0
2014-Jul-18 07:14N 46°24' W 002°19'1810.3
2014-Jul-18 05:29N 46°12' W 001°59'4410.9
2014-Jul-18 01:27N 45°36' W 001°22'1311.4
2014-Jul-18 00:16N 45°35' W 001°03'2312.6
2014-Jul-17 22:27N 45°16' W 000°45'22 0.5
2014-Jul-16 00:32N 45°34' W 001°03'4 0.4
2014-Jul-15 14:29N 45°37' W 001°06'1010.9
2014-Jul-15 13:33N 45°37' W 001°20'5 0.9
2014-Jul-15 08:06N 45°36' W 001°27'0 0.0
2014-Jul-15 04:17N 45°36' W 001°27'12610.7
2014-Jul-14 16:32N 43°46' W 002°50'2210.6
2014-Jul-14 14:27N 43°26' W 003°04'6 6.4
2014-Jul-14 13:33N 43°21' W 003°02'0 0.0
2014-Jul-14 12:31N 43°21' W 003°02'0 0.0
2014-Jul-14 11:32N 43°21' W 003°02'  

Dump ship's entire track history